createdAt,value
2019-03-12T00:00:58.013Z,12.13
2019-03-12T00:03:28.449Z,12.87
2019-03-12T00:05:59.614Z,10.70
2019-03-12T00:08:30.335Z,10.83
2019-03-12T00:11:01.225Z,11.10
2019-03-12T00:13:32.195Z,10.90
2019-03-12T00:16:03.015Z,10.80
2019-03-12T00:18:33.472Z,10.73
2019-03-12T00:21:04.070Z,11.37
2019-03-12T00:23:36.173Z,11.63
2019-03-12T00:26:07.175Z,11.13
2019-03-12T00:28:38.080Z,10.63
2019-03-12T00:31:08.855Z,11.27
2019-03-12T00:33:39.477Z,11.43
2019-03-12T00:36:10.063Z,11.33
2019-03-12T00:38:40.782Z,11.77
2019-03-12T00:41:11.233Z,12.60
2019-03-12T00:43:42.433Z,11.57
2019-03-12T00:46:13.020Z,12.50
2019-03-12T00:48:43.663Z,12.07
2019-03-12T00:51:14.126Z,11.93
2019-03-12T00:53:45.423Z,12.97
2019-03-12T00:56:16.107Z,13.10
2019-03-12T00:58:46.419Z,16.90
2019-03-12T01:01:17.471Z,13.70
2019-03-12T01:03:50.807Z,11.90
2019-03-12T01:06:21.263Z,13.10
2019-03-12T01:08:53.453Z,12.80
2019-03-12T01:11:24.514Z,14.47
2019-03-12T01:13:57.774Z,13.40
2019-03-12T01:16:28.300Z,13.73
2019-03-12T01:18:58.820Z,13.10
2019-03-12T01:21:29.318Z,14.00
2019-03-12T01:24:03.006Z,13.83
2019-03-12T01:26:33.939Z,12.67
2019-03-12T01:29:04.559Z,14.30
2019-03-12T01:31:35.249Z,15.20
2019-03-12T01:34:06.146Z,15.40
2019-03-12T01:36:36.946Z,13.93
2019-03-12T01:39:09.551Z,13.97
2019-03-12T01:41:40.671Z,14.63
2019-03-12T01:44:12.032Z,14.70
2019-03-12T01:46:43.010Z,12.53
2019-03-12T01:49:14.051Z,13.43
2019-03-12T01:51:45.191Z,13.73
2019-03-12T01:54:16.234Z,13.80
2019-03-12T01:56:46.888Z,13.37
2019-03-12T01:59:17.912Z,13.17
2019-03-12T02:01:50.075Z,12.53
2019-03-12T02:04:20.720Z,14.37
2019-03-12T02:06:51.112Z,14.10
2019-03-12T02:09:22.400Z,13.20
2019-03-12T02:11:53.057Z,13.00
2019-03-12T02:14:28.013Z,12.27
2019-03-12T02:16:58.900Z,13.37
2019-03-12T02:19:29.331Z,12.47
2019-03-12T02:21:59.888Z,12.63
2019-03-12T02:24:30.535Z,12.70
2019-03-12T02:27:01.493Z,12.70
2019-03-12T02:29:31.971Z,13.67
2019-03-12T02:32:02.400Z,13.10
2019-03-12T02:34:32.776Z,14.33
2019-03-12T02:37:03.744Z,12.47
2019-03-12T02:39:34.620Z,13.17
2019-03-12T02:42:05.177Z,13.10
2019-03-12T02:44:35.971Z,13.43
2019-03-12T02:47:07.605Z,13.17
2019-03-12T02:49:38.394Z,13.20
2019-03-12T02:52:09.362Z,12.83
2019-03-12T02:54:39.823Z,13.40
2019-03-12T02:57:10.983Z,12.90
2019-03-12T02:59:41.875Z,13.70
2019-03-12T03:02:12.460Z,12.87
2019-03-12T03:04:43.012Z,14.27
2019-03-12T03:07:19.792Z,13.63
2019-03-12T03:09:50.948Z,13.60
2019-03-12T03:12:21.865Z,13.70
2019-03-12T03:14:52.937Z,14.40
2019-03-12T03:17:25.149Z,15.27
2019-03-12T03:19:57.186Z,15.53
2019-03-12T03:22:28.446Z,14.80
2019-03-12T03:24:59.029Z,15.23
2019-03-12T03:27:30.459Z,15.00
2019-03-12T03:30:03.014Z,14.30
2019-03-12T03:32:33.566Z,13.40
2019-03-12T03:35:04.948Z,16.50
2019-03-12T03:37:36.466Z,16.00
2019-03-12T03:40:07.209Z,16.70
2019-03-12T03:42:38.627Z,14.73
2019-03-12T03:45:10.101Z,14.97
2019-03-12T03:47:40.697Z,15.33
2019-03-12T03:50:11.555Z,14.63
2019-03-12T03:52:43.230Z,13.60
2019-03-12T03:55:15.938Z,13.10
2019-03-12T03:57:46.401Z,12.60
2019-03-12T04:00:19.653Z,15.07
2019-03-12T04:02:50.349Z,14.63
2019-03-12T04:05:20.782Z,13.03
2019-03-12T04:07:51.231Z,15.03
2019-03-12T04:10:21.861Z,12.40
2019-03-12T04:12:52.903Z,13.40
2019-03-12T04:15:23.784Z,12.80
2019-03-12T04:17:55.696Z,12.50
2019-03-12T04:20:26.705Z,14.60
2019-03-12T04:22:57.222Z,15.13
2019-03-12T04:25:28.768Z,14.83
2019-03-12T04:27:59.502Z,13.30
2019-03-12T04:30:30.210Z,13.30
2019-03-12T04:33:01.567Z,15.47
2019-03-12T04:35:32.052Z,16.47
2019-03-12T04:38:02.636Z,16.93
2019-03-12T04:40:33.381Z,14.90
2019-03-12T04:43:04.095Z,14.50
2019-03-12T04:45:34.646Z,15.10
2019-03-12T04:48:05.466Z,13.27
2019-03-12T04:50:36.003Z,13.87
2019-03-12T04:53:06.507Z,14.70
2019-03-12T04:55:38.471Z,15.70
2019-03-12T04:58:09.248Z,15.70
2019-03-12T05:00:39.816Z,16.87
2019-03-12T05:03:11.467Z,14.73
2019-03-12T05:05:42.939Z,13.97
2019-03-12T05:08:13.518Z,12.23
2019-03-12T05:10:44.041Z,12.20
2019-03-12T05:13:15.977Z,15.30
2019-03-12T05:15:46.415Z,15.30
2019-03-12T05:18:16.732Z,14.20
2019-03-12T05:20:47.423Z,13.50
2019-03-12T05:23:18.365Z,15.60
2019-03-12T05:25:49.258Z,13.40
2019-03-12T05:28:20.079Z,12.80
2019-03-12T05:30:50.931Z,14.53
2019-03-12T05:33:21.418Z,16.00
2019-03-12T05:35:52.141Z,13.77
2019-03-12T05:38:22.849Z,13.50
2019-03-12T05:40:53.661Z,13.23
2019-03-12T05:43:24.129Z,13.37
2019-03-12T05:45:54.763Z,13.57
2019-03-12T05:48:25.992Z,12.47
2019-03-12T05:50:56.970Z,12.90
2019-03-12T05:53:40.198Z,13.77
2019-03-12T05:56:11.043Z,14.87
2019-03-12T05:58:41.950Z,14.30
2019-03-12T06:01:13.675Z,12.10
2019-03-12T06:03:44.449Z,15.27
2019-03-12T06:06:15.377Z,20.70
2019-03-12T06:08:46.579Z,19.03
2019-03-12T06:11:17.573Z,16.70
2019-03-12T06:13:48.624Z,14.97
2019-03-12T06:16:19.416Z,14.90
2019-03-12T06:18:50.650Z,14.60
2019-03-12T06:21:23.245Z,16.03
2019-03-12T06:23:54.432Z,16.30
2019-03-12T06:26:26.071Z,15.47
2019-03-12T06:28:56.556Z,14.53
2019-03-12T06:31:34.897Z,16.40
2019-03-12T06:34:13.213Z,16.87
2019-03-12T06:37:01.734Z,18.20
2019-03-12T06:39:48.432Z,19.13
2019-03-12T06:42:50.195Z,22.37
2019-03-12T06:45:45.477Z,18.30
2019-03-12T06:48:36.930Z,19.70
2019-03-12T06:51:15.568Z,19.17
2019-03-12T06:54:11.593Z,19.53
2019-03-12T06:56:48.751Z,20.43
2019-03-12T06:59:41.089Z,29.30
2019-03-12T07:02:22.478Z,25.50
2019-03-12T07:05:21.882Z,20.83
2019-03-12T07:08:20.337Z,20.77
2019-03-12T07:11:18.852Z,21.23
2019-03-12T07:14:08.653Z,25.43
2019-03-12T07:17:02.311Z,16.80
2019-03-12T07:19:54.282Z,17.90
2019-03-12T07:22:44.122Z,18.43
2019-03-12T07:25:31.651Z,19.00
2019-03-12T07:28:16.922Z,18.70
2019-03-12T07:30:58.209Z,20.43
2019-03-12T07:33:53.937Z,21.20
2019-03-12T07:37:02.223Z,22.00
2019-03-12T07:39:50.573Z,19.50
2019-03-12T07:42:33.412Z,18.27
2019-03-12T07:45:25.899Z,17.93
2019-03-12T07:48:25.032Z,18.40
2019-03-12T07:51:13.395Z,18.60
2019-03-12T07:53:59.250Z,18.47
2019-03-12T07:56:43.966Z,17.53
2019-03-12T07:59:24.141Z,17.27
2019-03-12T08:02:28.978Z,19.03
2019-03-12T08:05:11.567Z,17.40
2019-03-12T08:08:07.168Z,18.20
2019-03-12T08:10:51.532Z,18.60
2019-03-12T08:13:34.313Z,18.47
2019-03-12T08:16:23.081Z,19.07
2019-03-12T08:19:18.944Z,19.40
2019-03-12T08:22:08.902Z,18.67
2019-03-12T08:25:08.197Z,18.80
2019-03-12T08:27:57.904Z,19.00
2019-03-12T08:30:47.494Z,18.93
2019-03-12T08:33:49.900Z,19.40
2019-03-12T08:36:28.234Z,20.20
2019-03-12T08:39:16.619Z,20.33
2019-03-12T08:42:05.960Z,21.50
2019-03-12T08:45:15.482Z,22.33
2019-03-12T08:47:59.354Z,22.30
2019-03-12T08:50:54.671Z,21.93
2019-03-12T08:53:43.498Z,23.00
2019-03-12T08:56:33.133Z,23.97
2019-03-12T08:59:22.938Z,23.60
2019-03-12T09:02:16.320Z,23.33
2019-03-12T09:05:08.633Z,24.43
2019-03-12T09:07:47.037Z,24.00
2019-03-12T09:10:40.021Z,24.10
2019-03-12T09:13:48.138Z,22.73
2019-03-12T09:16:52.624Z,22.00
2019-03-12T09:19:45.423Z,21.50
2019-03-12T09:22:43.398Z,22.43
2019-03-12T09:25:42.407Z,23.30
2019-03-12T09:28:38.292Z,24.43
2019-03-12T09:31:46.506Z,21.80
2019-03-12T09:34:43.450Z,21.27
2019-03-12T09:38:08.984Z,21.50
2019-03-12T09:44:49.047Z,21.33
2019-03-12T09:47:44.788Z,22.47
2019-03-12T09:50:29.109Z,24.27
2019-03-12T09:53:08.426Z,23.67
2019-03-12T09:56:02.553Z,23.80
2019-03-12T09:59:04.322Z,21.20
2019-03-12T10:01:52.241Z,21.43
2019-03-12T10:04:31.716Z,21.83
2019-03-12T10:07:25.749Z,21.73
2019-03-12T10:10:17.784Z,20.87
2019-03-12T10:13:13.430Z,21.10
2019-03-12T10:16:15.567Z,22.30
2019-03-12T10:19:06.679Z,21.97
2019-03-12T10:22:03.172Z,21.43
2019-03-12T10:24:49.026Z,22.77
2019-03-12T10:27:46.577Z,23.10
2019-03-12T10:30:44.881Z,24.27
2019-03-12T10:33:33.443Z,23.67
2019-03-12T10:36:09.926Z,24.03
2019-03-12T10:39:40.814Z,23.17
2019-03-12T10:42:33.268Z,21.53
2019-03-12T10:45:26.781Z,24.57
2019-03-12T10:47:57.993Z,21.80
2019-03-12T10:50:28.617Z,21.73
2019-03-12T10:52:59.606Z,24.40
2019-03-12T10:55:30.284Z,23.63
2019-03-12T10:58:00.631Z,23.70
2019-03-12T11:00:31.761Z,22.10
2019-03-12T11:03:02.858Z,22.23
2019-03-12T11:05:45.240Z,22.63
2019-03-12T11:08:07.074Z,22.90
2019-03-12T11:10:38.202Z,22.20
2019-03-12T11:13:08.932Z,21.00
2019-03-12T11:15:40.268Z,20.63
2019-03-12T11:18:11.292Z,21.47
2019-03-12T11:20:41.757Z,20.43
2019-03-12T11:23:12.622Z,20.20
2019-03-12T11:25:43.508Z,20.63
2019-03-12T11:28:13.988Z,19.70
2019-03-12T11:30:44.928Z,21.10
2019-03-12T11:33:15.442Z,20.73
2019-03-12T11:35:46.047Z,20.60
2019-03-12T11:38:16.652Z,20.83
2019-03-12T11:40:47.042Z,20.33
2019-03-12T11:43:18.047Z,19.27
2019-03-12T11:45:48.922Z,20.57
2019-03-12T11:48:19.733Z,20.80
2019-03-12T11:50:51.976Z,20.30
2019-03-12T11:53:22.926Z,20.23
2019-03-12T11:55:54.116Z,20.60
2019-03-12T11:58:25.531Z,20.87
2019-03-12T12:00:58.831Z,20.27
2019-03-12T12:03:32.872Z,20.50
2019-03-12T12:06:03.723Z,20.50
2019-03-12T12:08:34.505Z,20.37
2019-03-12T12:11:05.239Z,20.93
2019-03-12T12:13:38.918Z,21.37
2019-03-12T12:16:10.654Z,22.30
2019-03-12T12:18:41.146Z,20.50
2019-03-12T12:21:11.916Z,21.43
2019-03-12T12:23:42.775Z,20.10
2019-03-12T12:26:13.570Z,21.03
2019-03-12T12:28:44.590Z,20.50
2019-03-12T12:31:15.316Z,20.30
2019-03-12T12:33:45.988Z,19.73
2019-03-12T12:36:16.550Z,20.63
2019-03-12T12:38:47.476Z,20.27
2019-03-12T12:41:18.154Z,20.57
2019-03-12T12:43:48.963Z,19.43
2019-03-12T12:46:20.063Z,21.27
2019-03-12T12:48:53.334Z,21.67
2019-03-12T12:51:24.038Z,21.10
2019-03-12T12:53:54.529Z,20.23
2019-03-12T12:56:25.597Z,20.00
2019-03-12T12:58:56.078Z,18.93
2019-03-12T13:01:27.044Z,19.67
2019-03-12T13:03:57.538Z,19.23
2019-03-12T13:06:28.117Z,19.47
2019-03-12T13:09:01.662Z,21.43
2019-03-12T13:11:32.504Z,19.17
2019-03-12T13:14:03.420Z,20.37
2019-03-12T13:16:34.671Z,19.40
2019-03-12T13:19:05.518Z,19.33
2019-03-12T13:21:36.132Z,20.10
2019-03-12T13:24:08.154Z,19.93
2019-03-12T13:26:38.789Z,20.37
2019-03-12T13:29:09.322Z,20.50
2019-03-12T13:31:39.985Z,20.63
2019-03-12T13:34:10.710Z,19.93
2019-03-12T13:36:41.207Z,20.40
2019-03-12T13:39:12.167Z,19.97
2019-03-12T13:41:44.419Z,20.80
2019-03-12T13:44:15.237Z,20.50
2019-03-12T13:46:47.383Z,20.13
2019-03-12T13:49:19.214Z,20.17
2019-03-12T13:51:50.823Z,20.17
2019-03-12T13:54:21.878Z,21.60
2019-03-12T13:56:52.876Z,22.17
2019-03-12T13:59:23.599Z,20.03
2019-03-12T14:01:54.257Z,18.97
2019-03-12T14:04:24.921Z,20.03
2019-03-12T14:06:55.281Z,20.53
2019-03-12T14:09:25.797Z,20.57
2019-03-12T14:11:59.054Z,19.77
2019-03-12T14:14:28.722Z,21.23
2019-03-12T14:16:59.317Z,19.83
2019-03-12T14:19:32.937Z,20.80
2019-03-12T14:22:06.221Z,20.00
2019-03-12T14:24:36.701Z,20.43
2019-03-12T14:27:08.585Z,19.83
2019-03-12T14:29:39.085Z,20.83
2019-03-12T14:32:12.071Z,19.80
2019-03-12T14:34:42.378Z,19.00
2019-03-12T14:37:13.111Z,18.43
2019-03-12T14:39:43.897Z,19.60
2019-03-12T14:42:15.612Z,18.23
2019-03-12T14:44:46.607Z,18.03
2019-03-12T14:47:18.523Z,18.77
2019-03-12T14:49:50.773Z,18.30
2019-03-12T14:52:24.622Z,17.90
2019-03-12T14:54:55.184Z,18.00
2019-03-12T14:57:26.047Z,17.90
2019-03-12T14:59:56.625Z,19.93
2019-03-12T15:02:27.536Z,18.40
2019-03-12T15:04:58.706Z,17.60
2019-03-12T15:07:29.174Z,17.60
2019-03-12T15:10:00.376Z,18.00
2019-03-12T15:12:31.568Z,17.87
2019-03-12T15:15:02.309Z,18.50
2019-03-12T15:17:34.264Z,17.63
2019-03-12T15:20:05.905Z,18.60
2019-03-12T15:22:37.261Z,18.33
2019-03-12T15:25:09.553Z,18.30
2019-03-12T15:27:40.612Z,18.23
2019-03-12T15:30:15.171Z,17.70
2019-03-12T15:32:46.212Z,18.47
2019-03-12T15:35:17.183Z,18.90
2019-03-12T15:37:49.021Z,18.47
2019-03-12T15:40:19.955Z,17.70
2019-03-12T15:42:50.565Z,17.43
2019-03-12T15:45:21.401Z,19.13
2019-03-12T15:47:51.821Z,19.17
2019-03-12T15:50:22.534Z,19.40
2019-03-12T15:52:53.803Z,18.90
2019-03-12T15:55:24.577Z,19.70
2019-03-12T15:57:55.023Z,19.90
2019-03-12T16:00:25.928Z,19.70
2019-03-12T16:02:57.159Z,17.90
2019-03-12T16:05:32.047Z,17.80
2019-03-12T16:08:04.812Z,18.70
2019-03-12T16:10:35.835Z,17.70
2019-03-12T16:13:07.927Z,18.30
2019-03-12T16:15:39.278Z,18.70
2019-03-12T16:18:10.023Z,19.67
2019-03-12T16:20:45.273Z,19.23
2019-03-12T16:23:16.386Z,20.60
2019-03-12T16:25:50.871Z,19.90
2019-03-12T16:28:22.631Z,21.07
2019-03-12T16:30:58.795Z,20.87
2019-03-12T16:33:30.908Z,20.33
2019-03-12T16:36:01.573Z,20.37
2019-03-12T16:38:32.419Z,19.50
2019-03-12T16:41:06.657Z,19.87
2019-03-12T16:43:37.430Z,20.60
2019-03-12T16:46:09.391Z,20.70
2019-03-12T16:48:40.590Z,19.70
2019-03-12T16:51:11.284Z,20.67
2019-03-12T16:53:43.189Z,22.37
2019-03-12T16:56:14.861Z,23.10
2019-03-12T16:58:45.549Z,22.23
2019-03-12T17:01:17.944Z,21.50
2019-03-12T17:03:48.789Z,21.20
2019-03-12T17:06:19.992Z,22.20
2019-03-12T17:08:56.333Z,21.60
2019-03-12T17:11:28.176Z,23.07
2019-03-12T17:13:59.504Z,21.57
2019-03-12T17:16:30.993Z,20.83
2019-03-12T17:19:03.110Z,20.33
2019-03-12T17:21:34.006Z,21.20
2019-03-12T17:24:05.261Z,22.00
2019-03-12T17:26:36.234Z,22.50
2019-03-12T17:29:10.441Z,22.90
2019-03-12T17:31:41.898Z,23.83
2019-03-12T17:34:13.352Z,24.23
2019-03-12T17:36:44.380Z,21.80
2019-03-12T17:39:15.606Z,23.47
2019-03-12T17:41:46.697Z,23.23
2019-03-12T17:44:17.841Z,20.93
2019-03-12T17:46:50.342Z,22.50
2019-03-12T17:49:21.740Z,21.47
2019-03-12T17:51:52.871Z,22.93
2019-03-12T17:54:24.212Z,22.93
2019-03-12T17:56:56.000Z,23.30
2019-03-12T17:59:28.791Z,21.97
2019-03-12T18:01:59.692Z,23.27
2019-03-12T18:04:30.701Z,24.33
2019-03-12T18:07:01.755Z,23.30
2019-03-12T18:09:36.827Z,23.77
2019-03-12T18:12:08.111Z,23.50
2019-03-12T18:14:41.063Z,23.90
2019-03-12T18:17:12.146Z,22.93
2019-03-12T18:19:43.180Z,25.20
2019-03-12T18:22:14.189Z,25.53
2019-03-12T18:24:45.529Z,25.07
2019-03-12T18:27:16.593Z,25.97
2019-03-12T18:29:47.479Z,26.90
2019-03-12T18:32:19.668Z,26.33
2019-03-12T18:34:52.338Z,28.70
2019-03-12T18:37:23.976Z,26.20
2019-03-12T18:39:55.663Z,26.77
2019-03-12T18:42:26.959Z,24.80
2019-03-12T18:44:57.794Z,24.37
2019-03-12T18:47:33.265Z,24.40
2019-03-12T18:50:04.230Z,24.93
2019-03-12T18:52:35.460Z,23.63
2019-03-12T18:55:06.743Z,23.57
2019-03-12T18:57:41.585Z,23.87
2019-03-12T19:00:13.746Z,25.07
2019-03-12T19:02:45.360Z,24.87
2019-03-12T19:05:16.981Z,25.40
2019-03-12T19:07:48.068Z,24.80
2019-03-12T19:10:19.276Z,24.23
2019-03-12T19:12:50.870Z,24.13
2019-03-12T19:15:22.831Z,24.60
2019-03-12T19:17:54.281Z,25.13
2019-03-12T19:20:25.976Z,24.47
2019-03-12T19:22:59.031Z,23.87
2019-03-12T19:25:30.752Z,25.00
2019-03-12T19:28:02.710Z,25.57
2019-03-12T19:30:36.415Z,24.23
2019-03-12T19:33:14.033Z,23.80
2019-03-12T19:35:46.027Z,23.90
2019-03-12T19:38:20.246Z,26.33
2019-03-12T19:40:54.017Z,26.03
2019-03-12T19:43:25.313Z,24.40
2019-03-12T19:45:57.494Z,24.23
2019-03-12T19:48:28.865Z,23.50
2019-03-12T19:51:00.345Z,23.30
2019-03-12T19:53:31.252Z,24.40
2019-03-12T19:56:02.748Z,22.40
2019-03-12T19:58:35.334Z,22.80
2019-03-12T20:01:09.375Z,22.80
2019-03-12T20:03:42.015Z,21.77
2019-03-12T20:06:13.798Z,22.83
2019-03-12T20:08:47.094Z,22.60
2019-03-12T20:11:44.236Z,23.03
2019-03-12T20:14:56.800Z,23.60
2019-03-12T20:18:07.602Z,22.80
2019-03-12T20:21:08.026Z,22.70
2019-03-12T20:24:11.856Z,22.77
2019-03-12T20:27:30.060Z,22.93
2019-03-12T20:30:43.617Z,22.93
2019-03-12T20:33:50.066Z,22.20
2019-03-12T20:36:56.950Z,22.97
2019-03-12T20:40:06.879Z,20.30
2019-03-12T20:43:20.942Z,21.60
2019-03-12T20:46:30.676Z,20.83
2019-03-12T20:49:51.391Z,20.37
2019-03-12T20:53:15.502Z,20.80
2019-03-12T20:56:43.349Z,20.80
2019-03-12T20:59:50.749Z,21.23
2019-03-12T21:03:03.573Z,20.43
2019-03-12T21:06:37.099Z,21.27
2019-03-12T21:09:53.276Z,21.07
2019-03-12T21:13:03.736Z,19.17
2019-03-12T21:15:59.422Z,20.90
2019-03-12T21:19:17.235Z,19.33
2019-03-12T21:22:38.014Z,21.30
2019-03-12T21:25:31.723Z,20.30
2019-03-12T21:28:29.534Z,19.53
2019-03-12T21:31:02.140Z,20.07
2019-03-12T21:33:33.556Z,20.37
2019-03-12T21:36:08.222Z,21.50
2019-03-12T21:38:41.610Z,20.50
2019-03-12T21:41:13.972Z,19.60
2019-03-12T21:43:46.426Z,20.90
2019-03-12T21:46:17.861Z,20.70
2019-03-12T21:48:51.186Z,21.60
2019-03-12T21:51:23.120Z,22.67
2019-03-12T21:53:54.356Z,22.40
2019-03-12T21:56:26.060Z,21.97
2019-03-12T21:58:56.696Z,26.80
2019-03-12T22:01:28.501Z,22.97
2019-03-12T22:03:59.399Z,23.13
2019-03-12T22:06:29.659Z,22.50
2019-03-12T22:09:00.524Z,23.10
2019-03-12T22:11:31.905Z,21.57
2019-03-12T22:14:02.605Z,21.70
2019-03-12T22:16:33.671Z,22.17
2019-03-12T22:19:04.343Z,21.90
2019-03-12T22:21:52.580Z,22.97
2019-03-12T22:24:22.942Z,22.33
2019-03-12T22:26:53.356Z,20.43
2019-03-12T22:29:25.702Z,22.40
2019-03-12T22:31:56.264Z,20.77
2019-03-12T22:34:29.775Z,20.67
2019-03-12T22:36:58.955Z,22.40
2019-03-12T22:39:29.904Z,19.70
2019-03-12T22:42:00.570Z,20.10
2019-03-12T22:44:30.659Z,20.30
2019-03-12T22:47:01.760Z,19.90
2019-03-12T22:49:32.922Z,20.97
2019-03-12T22:52:03.580Z,21.20
2019-03-12T22:54:34.034Z,20.10
2019-03-12T22:57:04.310Z,21.10
2019-03-12T22:59:35.391Z,20.80
2019-03-12T23:02:06.195Z,22.70
2019-03-12T23:04:36.610Z,21.27
2019-03-12T23:07:06.820Z,21.70
2019-03-12T23:09:38.121Z,21.30
2019-03-12T23:12:09.796Z,21.07
2019-03-12T23:14:40.720Z,20.13
2019-03-12T23:17:11.209Z,20.90
2019-03-12T23:19:42.783Z,21.60
2019-03-12T23:22:13.663Z,20.37
2019-03-12T23:24:44.351Z,19.77
2019-03-12T23:27:15.016Z,20.27
2019-03-12T23:29:46.163Z,19.03
2019-03-12T23:32:17.738Z,20.40
2019-03-12T23:34:48.612Z,19.50
2019-03-12T23:37:20.598Z,19.63
2019-03-12T23:39:51.507Z,20.27
2019-03-12T23:42:22.262Z,19.00
2019-03-12T23:44:52.998Z,18.00
2019-03-12T23:47:23.889Z,20.90
2019-03-12T23:49:54.675Z,19.10
2019-03-12T23:52:25.870Z,19.83
2019-03-12T23:54:56.418Z,19.90
2019-03-12T23:57:27.178Z,21.20
2019-03-12T23:59:57.786Z,21.10
